.
WxDataArchive / Data Records for 2011-02-10
2011-02-09 February 2011 2011-02-11

Data Records for Thursday, 10 February 2011

Time	Temp	Chill	HIndex	Humid	Dewpt	 Wind 	HiWind	WindDir	Rain 	Barom 
-----	----	-----	------	-----	-----	------	------	-------	-----	----- 
00:00	1.1	1.1	1.1	73	-5.5	0	1	248	0.00	30.244 
00:05	1.1	1.1	1.1	73	-5.5	0	0	---	0.00	30.244 
00:10	0.9	0.9	0.9	73	-5.7	0	0	---	0.00	30.244 
00:15	0.7	0.7	0.7	73	-5.9	0	0	---	0.00	30.243 
00:20	0.5	0.5	0.5	73	-6.1	0	0	---	0.00	30.243 
00:25	0.3	0.3	0.3	73	-6.3	0	1	248	0.00	30.243 
00:30	0.1	0.1	0.1	74	-6.2	0	0	---	0.00	30.247 
00:35	0.0	0.0	0.0	74	-6.3	0	1	248	0.00	30.247 
00:40	0.0	0.0	0.0	74	-6.3	0	0	---	0.00	30.247 
00:45	0.0	0.0	0.0	75	-6.0	0	0	---	0.00	30.246 
00:50	-0.2	-0.2	-0.2	75	-6.2	0	0	---	0.00	30.246 
00:55	-0.2	-0.2	-0.2	75	-6.2	0	1	248	0.00	30.246 
01:00	-0.4	-0.4	-0.4	75	-6.4	0	0	---	0.00	30.244 
01:05	-0.4	-0.4	-0.4	75	-6.4	0	0	---	0.00	30.244 
01:10	-0.6	-0.6	-0.6	75	-6.6	0	1	248	0.00	30.244 
01:15	-0.6	-0.6	-0.6	75	-6.6	0	0	---	0.00	30.245 
01:20	-0.8	-0.8	-0.8	76	-6.5	0	2	248	0.00	30.245 
01:25	-0.8	-0.8	-0.8	76	-6.5	0	1	248	0.00	30.245 
01:30	-0.6	-0.6	-0.6	76	-6.3	0	1	248	0.00	30.247 
01:35	-0.6	-0.6	-0.6	76	-6.3	0	2	248	0.00	30.247 
01:40	-0.6	-0.6	-0.6	76	-6.3	0	0	---	0.00	30.247 
01:45	-0.8	-0.8	-0.8	76	-6.5	0	0	---	0.00	30.240 
01:50	-0.8	-0.8	-0.8	76	-6.5	0	0	---	0.00	30.240 
01:55	-1.0	-1.0	-1.0	76	-6.7	0	1	248	0.00	30.240 
02:00	-1.2	-1.2	-1.2	76	-6.9	0	1	248	0.00	30.236 
02:05	-1.4	-1.4	-1.4	76	-7.1	0	1	248	0.00	30.236 
02:10	-1.4	-1.4	-1.4	76	-7.1	0	2	248	0.00	30.236 
02:15	-1.4	-1.4	-1.4	76	-7.1	0	1	248	0.00	30.236 
02:20	-1.4	-1.4	-1.4	76	-7.1	0	1	248	0.00	30.236 
02:25	-1.6	-1.6	-1.6	76	-7.3	0	1	248	0.00	30.236 
02:30	-1.6	-1.6	-1.6	76	-7.3	0	1	248	0.00	30.234 
02:35	-1.8	-1.8	-1.8	76	-7.5	0	1	248	0.00	30.234 
02:40	-1.8	-1.8	-1.8	76	-7.5	0	2	248	0.00	30.234 
02:45	-1.8	-1.8	-1.8	76	-7.5	0	1	248	0.00	30.236 
02:50	-1.8	-1.8	-1.8	76	-7.5	0	2	248	0.00	30.236 
02:55	-1.8	-1.8	-1.8	76	-7.5	0	2	248	0.00	30.236 
03:00	-1.8	-1.8	-1.8	76	-7.5	0	2	248	0.00	30.233 
03:05	-2.0	-2.0	-2.0	76	-7.7	0	1	248	0.00	30.233 
03:10	-2.0	-2.0	-2.0	76	-7.7	0	1	248	0.00	30.233 
03:15	-2.2	-2.2	-2.2	75	-8.1	0	0	---	0.00	30.232 
03:20	-2.4	-2.4	-2.4	75	-8.3	0	1	248	0.00	30.232 
03:25	-2.6	-2.6	-2.6	75	-8.5	0	1	248	0.00	30.232 
03:30	-2.6	-2.6	-2.6	75	-8.5	0	1	248	0.00	30.235 
03:35	-2.8	-2.8	-2.8	75	-8.7	0	1	248	0.00	30.235 
03:40	-2.8	-2.8	-2.8	75	-8.7	0	1	248	0.00	30.235 
03:45	-2.8	-2.8	-2.8	75	-8.7	0	2	248	0.00	30.239 
03:50	-2.8	-2.8	-2.8	75	-8.7	0	1	248	0.00	30.239 
03:55	-2.8	-2.8	-2.8	75	-8.7	0	1	248	0.00	30.239 
04:00	-3.1	-3.1	-3.1	75	-9.0	0	1	248	0.00	30.243 
04:05	-3.1	-3.1	-3.1	75	-9.0	0	1	248	0.00	30.243 
04:10	-3.3	-3.3	-3.3	75	-9.2	0	0	---	0.00	30.243 
04:15	-3.3	-3.3	-3.3	75	-9.2	0	1	248	0.00	30.238 
04:20	-3.3	-3.3	-3.3	75	-9.2	0	0	---	0.00	30.238 
04:25	-3.3	-3.3	-3.3	75	-9.2	0	1	248	0.00	30.238 
04:30	-3.3	-3.3	-3.3	75	-9.2	0	1	248	0.00	30.243 
04:35	-3.3	-3.3	-3.3	75	-9.2	0	1	248	0.00	30.243 
04:40	-3.3	-3.3	-3.3	75	-9.2	0	1	248	0.00	30.243 
04:45	-3.3	-3.3	-3.3	75	-9.2	0	1	248	0.00	30.238 
04:50	-3.5	-3.5	-3.5	75	-9.4	0	1	248	0.00	30.238 
04:55	-3.3	-3.3	-3.3	75	-9.2	0	1	248	0.00	30.238 
05:00	-3.5	-3.5	-3.5	75	-9.4	0	1	248	0.00	30.243 
05:05	-3.5	-3.5	-3.5	75	-9.4	0	1	248	0.00	30.243 
05:10	-3.5	-3.5	-3.5	75	-9.4	0	1	248	0.00	30.243 
05:15	-3.3	-3.3	-3.3	75	-9.2	0	2	248	0.00	30.248 
05:20	-3.3	-3.3	-3.3	75	-9.2	0	2	248	0.00	30.248 
05:25	-3.3	-3.3	-3.3	75	-9.2	0	2	248	0.00	30.248 
05:30	-3.5	-3.5	-3.5	75	-9.4	0	2	248	0.00	30.253 
05:35	-3.5	-3.5	-3.5	75	-9.4	0	2	248	0.00	30.253 
05:40	-3.5	-3.5	-3.5	75	-9.4	0	0	---	0.00	30.253 
05:45	-3.7	-3.7	-3.7	75	-9.6	0	1	248	0.00	30.257 
05:50	-3.7	-3.7	-3.7	75	-9.6	0	2	248	0.00	30.257 
05:55	-3.7	-3.7	-3.7	75	-9.6	0	1	248	0.00	30.257 
06:00	-3.7	-3.7	-3.7	75	-9.6	0	1	248	0.00	30.258 
06:05	-3.7	-3.7	-3.7	75	-9.6	0	2	248	0.00	30.258 
06:10	-3.7	-3.7	-3.7	75	-9.6	0	2	248	0.00	30.258 
06:15	-3.7	-3.7	-3.7	75	-9.6	0	1	248	0.00	30.262 
06:20	-3.7	-3.7	-3.7	75	-9.6	0	2	248	0.00	30.262 
06:25	-3.9	-3.9	-3.9	75	-9.8	0	1	248	0.00	30.262 
06:30	-3.9	-3.9	-3.9	74	-10.1	0	2	248	0.00	30.262 
06:35	-3.9	-3.9	-3.9	74	-10.1	0	1	248	0.00	30.262 
06:40	-4.1	-4.1	-4.1	74	-10.3	0	1	248	0.00	30.262 
06:45	-4.3	-4.3	-4.3	74	-10.4	0	2	248	0.00	30.263 
06:50	-4.3	-4.3	-4.3	74	-10.4	0	1	248	0.00	30.263 
06:55	-4.3	-4.3	-4.3	74	-10.4	0	2	248	0.00	30.263 
07:00	-4.3	-4.3	-4.3	74	-10.4	0	2	248	0.00	30.260 
07:05	-4.6	-4.6	-4.6	74	-10.7	0	3	248	0.00	30.260 
07:10	-4.6	-4.6	-4.6	74	-10.7	0	3	248	0.00	30.260 
07:15	-4.8	-4.8	-4.8	74	-10.9	0	1	248	0.00	30.257 
07:20	-5.0	-5.0	-5.0	74	-11.1	0	2	248	0.00	30.257 
07:25	-5.0	-5.0	-5.0	74	-11.1	0	2	248	0.00	30.257 
07:30	-5.2	-5.2	-5.2	74	-11.3	0	1	248	0.00	30.257 
07:35	-5.2	-5.2	-5.2	74	-11.3	0	1	248	0.00	30.257 
07:40	-5.2	-5.2	-5.2	74	-11.3	0	1	248	0.00	30.257 
07:45	-5.4	-5.4	-5.4	74	-11.5	0	1	248	0.00	30.256 
07:50	-5.4	-5.4	-5.4	74	-11.5	0	1	248	0.00	30.256 
07:55	-5.6	-5.6	-5.6	74	-11.7	0	1	248	0.00	30.256 
08:00	-5.6	-5.6	-5.6	74	-11.7	0	1	248	0.00	30.257 
08:05	-5.4	-5.4	-5.4	74	-11.5	0	2	248	0.00	30.257 
08:10	-5.4	-5.4	-5.4	74	-11.5	0	1	248	0.00	30.257 
08:15	-5.2	-5.2	-5.2	74	-11.3	0	1	248	0.00	30.258 
08:20	-5.0	-5.0	-5.0	74	-11.1	0	2	248	0.00	30.258 
08:25	-4.8	-4.8	-4.8	74	-10.9	0	1	248	0.00	30.258 
08:30	-4.3	-4.3	-4.3	75	-10.2	0	2	248	0.00	30.259 
08:35	-4.1	-4.1	-4.1	74	-10.3	0	2	248	0.00	30.259 
08:40	-3.5	-3.5	-3.5	74	-9.7	0	2	248	0.00	30.259 
08:45	-3.3	-3.3	-3.3	74	-9.5	1	4	248	0.00	30.259 
08:50	-2.8	-2.8	-2.8	74	-9.0	1	4	248	0.00	30.259 
08:55	-2.4	-2.4	-2.4	73	-8.9	1	3	248	0.00	30.259 
09:00	-2.0	-2.0	-2.0	73	-8.5	1	2	248	0.00	30.259 
09:05	-1.8	-1.8	-1.8	73	-8.3	0	1	248	0.00	30.259 
09:10	-1.4	-1.4	-1.4	72	-8.2	1	2	248	0.00	30.259 
09:15	-1.0	-1.0	-1.0	72	-7.8	1	2	248	0.00	30.256 
09:20	-0.6	-0.6	-0.6	71	-7.7	1	3	248	0.00	30.256 
09:25	-0.2	-0.2	-0.2	71	-7.3	1	2	248	0.00	30.256 
09:30	0.0	0.0	0.0	70	-7.4	1	2	248	0.00	30.254 
09:35	0.3	0.3	0.3	70	-7.1	0	2	248	0.00	30.254 
09:40	1.1	1.1	1.1	69	-6.7	0	1	248	0.00	30.254 
09:45	1.7	1.7	1.7	69	-6.1	0	2	248	0.00	30.253 
09:50	2.2	2.2	2.2	69	-5.6	1	3	248	0.00	30.253 
09:55	2.8	2.8	2.8	67	-5.6	1	3	248	0.00	30.253 
10:00	3.4	3.4	3.4	66	-5.4	0	2	248	0.00	30.252 
10:05	3.7	3.7	3.7	65	-5.4	1	4	248	0.00	30.252 
10:10	3.7	3.7	3.7	64	-5.7	1	3	248	0.00	30.252 
10:15	3.9	3.9	3.9	64	-5.5	1	3	248	0.00	30.262 
10:20	4.3	4.3	4.3	64	-5.1	1	4	248	0.00	30.262 
10:25	4.5	4.5	4.5	63	-5.3	1	3	248	0.00	30.262 
10:30	4.8	4.8	4.8	62	-5.3	1	3	248	0.00	30.267 
10:35	5.0	5.0	5.0	62	-5.1	1	3	248	0.00	30.267 
10:40	5.0	5.0	5.0	61	-5.5	1	3	248	0.00	30.267 
10:45	5.6	5.6	5.6	62	-4.6	1	4	248	0.00	30.269 
10:50	6.0	6.0	6.0	61	-4.5	1	4	248	0.00	30.269 
10:55	6.1	6.1	6.1	60	-4.8	1	4	248	0.00	30.269 
11:00	6.5	6.5	6.5	60	-4.4	1	2	225	0.00	30.267 
11:05	7.2	7.2	7.2	59	-4.1	1	2	225	0.00	30.267 
11:10	7.4	7.4	7.4	57	-4.6	1	4	225	0.00	30.267 
11:15	7.7	7.7	7.7	57	-4.3	1	2	225	0.00	30.268 
11:20	8.1	8.1	8.1	56	-4.3	1	2	225	0.00	30.268 
11:25	8.3	8.3	8.3	54	-4.9	1	2	315	0.00	30.268 
11:30	8.6	8.6	8.6	53	-5.0	2	4	248	0.00	30.269 
11:35	8.6	8.6	8.6	50	-6.2	2	4	248	0.00	30.269 
11:40	8.8	8.8	8.8	49	-6.4	1	3	248	0.00	30.269 
11:45	9.2	9.2	9.2	50	-5.6	1	3	248	0.00	30.266 
11:50	9.5	9.5	9.5	49	-5.8	0	2	248	0.00	30.266 
11:55	9.7	9.7	9.7	47	-6.4	2	5	248	0.00	30.266 
12:00	9.9	9.9	9.9	47	-6.3	1	3	248	0.00	30.263 
12:05	10.0	10.0	10.0	47	-6.2	1	4	248	0.00	30.263 
12:10	10.2	10.2	10.2	46	-6.4	1	3	248	0.00	30.263 
12:15	10.5	10.5	10.5	47	-5.7	1	4	248	0.00	30.253 
12:20	10.5	10.5	10.5	45	-6.6	2	5	248	0.00	30.253 
12:25	10.7	10.7	10.7	46	-6.0	0	2	248	0.00	30.253 
12:30	11.1	11.1	11.1	46	-5.6	1	3	248	0.00	30.250 
12:35	11.2	11.2	11.2	46	-5.5	1	3	248	0.00	30.250 
12:40	11.2	11.2	11.2	44	-6.4	1	3	292	0.00	30.250 
12:45	11.6	11.6	11.6	45	-5.6	1	3	248	0.00	30.245 
12:50	11.7	11.7	11.7	46	-5.0	0	2	248	0.00	30.245 
12:55	11.9	11.9	11.9	45	-5.3	1	3	248	0.00	30.245 
13:00	11.9	11.9	11.9	46	-4.9	0	3	248	0.00	30.234 
13:05	11.9	11.9	11.9	45	-5.3	1	4	248	0.00	30.234 
13:10	11.7	11.7	11.7	46	-5.0	1	4	248	0.00	30.234 
13:15	11.6	11.6	11.6	46	-5.1	1	6	248	0.00	30.231 
13:20	11.1	11.1	11.1	46	-5.6	1	5	270	0.00	30.231 
13:25	10.9	10.9	10.9	47	-5.3	1	4	270	0.00	30.231 
13:30	10.7	10.7	10.7	47	-5.5	1	3	135	0.00	30.218 
13:35	11.1	11.1	11.1	47	-5.1	1	3	225	0.00	30.218 
13:40	11.2	11.2	11.2	46	-5.5	2	6	270	0.00	30.218 
13:45	11.2	11.2	11.2	46	-5.5	2	6	248	0.00	30.221 
13:50	11.2	11.2	11.2	46	-5.5	2	7	248	0.00	30.221 
13:55	11.2	11.2	11.2	46	-5.5	2	7	225	0.00	30.221 
14:00	11.4	11.4	11.4	46	-5.3	2	7	248	0.00	30.221 
14:05	11.7	11.7	11.7	45	-5.5	1	4	248	0.00	30.221 
14:10	12.1	12.1	12.1	44	-5.6	1	5	248	0.00	30.221 
14:15	12.4	12.4	12.4	43	-5.8	1	4	225	0.00	30.203 
14:20	12.4	12.4	12.4	43	-5.8	2	6	225	0.00	30.203 
14:25	12.4	12.4	12.4	44	-5.3	2	6	248	0.00	30.203 
14:30	12.3	12.3	12.3	46	-4.5	1	5	112	0.00	30.202 
14:35	12.1	12.1	12.1	44	-5.6	1	6	248	0.00	30.202 
14:40	12.1	12.1	12.1	44	-5.6	1	3	248	0.00	30.202 
14:45	12.3	12.3	12.3	44	-5.4	1	6	248	0.00	30.202 
14:50	12.3	12.3	12.3	44	-5.4	2	5	248	0.00	30.202 
14:55	12.4	12.4	12.4	44	-5.3	1	4	248	0.00	30.202 
15:00	12.4	12.4	12.4	44	-5.3	2	6	248	0.00	30.204 
15:05	12.6	12.6	12.6	43	-5.6	1	5	248	0.00	30.204 
15:10	12.8	12.8	12.8	44	-4.9	1	4	225	0.00	30.204 
15:15	12.8	12.8	12.8	43	-5.4	2	6	225	0.00	30.206 
15:20	12.9	12.9	12.9	43	-5.3	2	7	248	0.00	30.206 
15:25	13.3	13.3	13.3	43	-5.0	2	6	292	0.00	30.206 
15:30	13.6	13.6	13.6	41	-5.7	3	7	248	0.00	30.201 
15:35	13.8	13.8	13.8	41	-5.5	1	4	225	0.00	30.201 
15:40	13.6	13.6	13.6	39	-6.7	2	5	248	0.00	30.201 
15:45	13.5	13.5	13.5	40	-6.3	2	6	248	0.00	30.185 
15:50	13.5	13.5	13.5	40	-6.3	2	6	248	0.00	30.185 
15:55	13.1	13.1	13.1	39	-7.2	2	5	248	0.00	30.185 
16:00	13.3	13.3	13.3	40	-6.5	1	5	248	0.00	30.176 
16:05	13.5	13.5	13.5	40	-6.3	2	7	225	0.00	30.176 
16:10	13.3	13.3	13.3	39	-7.0	2	5	248	0.00	30.176 
16:15	13.3	13.3	13.3	38	-7.5	2	6	248	0.00	30.175 
16:20	13.3	13.3	13.3	38	-7.5	1	5	248	0.00	30.175 
16:25	13.3	13.3	13.3	39	-7.0	2	4	248	0.00	30.175 
16:30	13.1	13.1	13.1	38	-7.7	2	6	248	0.00	30.180 
16:35	13.1	13.1	13.1	38	-7.7	2	9	248	0.00	30.180 
16:40	12.9	12.9	12.9	38	-7.9	1	3	248	0.00	30.180 
16:45	12.9	12.9	12.9	38	-7.9	1	6	248	0.00	30.177 
16:50	12.9	12.9	12.9	39	-7.3	1	5	248	0.00	30.177 
16:55	12.9	12.9	12.9	39	-7.3	1	5	248	0.00	30.177 
17:00	12.9	12.9	12.9	39	-7.3	1	3	248	0.00	30.175 
17:05	12.9	12.9	12.9	39	-7.3	1	3	248	0.00	30.175 
17:10	12.6	12.6	12.6	39	-7.6	1	3	248	0.00	30.175 
17:15	12.4	12.4	12.4	39	-7.8	1	5	248	0.00	30.169 
17:20	12.4	12.4	12.4	38	-8.3	1	4	248	0.00	30.169 
17:25	12.3	12.3	12.3	38	-8.4	0	3	248	0.00	30.169 
17:30	12.3	12.3	12.3	39	-7.9	1	4	248	0.00	30.162 
17:35	12.1	12.1	12.1	39	-8.1	1	3	315	0.00	30.162 
17:40	11.7	11.7	11.7	39	-8.4	0	2	315	0.00	30.162 
17:45	11.4	11.4	11.4	40	-8.2	0	2	315	0.00	30.162 
17:50	10.9	10.9	10.9	42	-7.6	0	2	315	0.00	30.162 
17:55	10.5	10.5	10.5	43	-7.5	0	3	90	0.00	30.162 
18:00	10.2	10.2	10.2	43	-7.8	0	2	248	0.00	30.160 
18:05	9.9	9.9	9.9	44	-7.6	0	1	248	0.00	30.160 
18:10	9.5	9.5	9.5	45	-7.5	0	1	248	0.00	30.160 
18:15	9.2	9.2	9.2	45	-7.8	0	1	248	0.00	30.155 
18:20	8.8	8.8	8.8	46	-7.7	0	0	---	0.00	30.155 
18:25	8.4	8.4	8.4	46	-8.1	0	0	---	0.00	30.155 
18:30	8.1	8.1	8.1	47	-7.9	0	0	---	0.00	30.149 
18:35	7.7	7.7	7.7	48	-7.9	0	1	248	0.00	30.149 
18:40	7.6	7.6	7.6	49	-7.5	0	0	---	0.00	30.149 
18:45	7.6	7.6	7.6	50	-7.1	0	1	248	0.00	30.148 
18:50	7.4	7.4	7.4	50	-7.3	0	0	---	0.00	30.148 
18:55	7.2	7.2	7.2	50	-7.5	0	0	---	0.00	30.148 
19:00	6.9	6.9	6.9	51	-7.4	0	0	---	0.00	30.147 
19:05	6.5	6.5	6.5	52	-7.3	0	0	---	0.00	30.147 
19:10	6.1	6.1	6.1	52	-7.7	0	0	---	0.00	30.147 
19:15	5.8	5.8	5.8	52	-8.0	0	0	---	0.00	30.143 
19:20	5.6	5.6	5.6	53	-7.8	0	0	---	0.00	30.143 
19:25	5.2	5.2	5.2	54	-7.8	0	1	248	0.00	30.143 
19:30	5.0	5.0	5.0	55	-7.6	0	1	158	0.00	30.134 
19:35	5.0	5.0	5.0	55	-7.6	0	1	158	0.00	30.134 
19:40	5.2	5.2	5.2	55	-7.4	0	1	158	0.00	30.134 
19:45	5.2	5.2	5.2	56	-7.0	0	2	158	0.00	30.133 
19:50	5.6	5.6	5.6	57	-6.3	0	2	112	0.00	30.133 
19:55	6.0	6.0	6.0	56	-6.3	0	2	112	0.00	30.133 
20:00	6.1	6.1	6.1	55	-6.6	0	1	112	0.00	30.127 
20:05	6.0	6.0	6.0	56	-6.3	0	0	---	0.00	30.127 
20:10	5.8	5.8	5.8	56	-6.5	0	0	---	0.00	30.127 
20:15	5.8	5.8	5.8	57	-6.1	0	1	112	0.00	30.116 
20:20	6.0	6.0	6.0	57	-5.9	0	1	112	0.00	30.116 
20:25	6.0	6.0	6.0	57	-5.9	0	1	112	0.00	30.116 
20:30	6.1	6.1	6.1	58	-5.5	0	1	112	0.00	30.118 
20:35	6.3	6.3	6.3	58	-5.3	0	1	112	0.00	30.118 
20:40	6.3	6.3	6.3	58	-5.3	0	1	112	0.00	30.118 
20:45	6.7	6.7	6.7	58	-4.9	0	1	135	0.00	30.118 
20:50	6.9	6.9	6.9	58	-4.7	0	1	135	0.00	30.118 
20:55	7.0	7.0	7.0	58	-4.6	0	2	135	0.00	30.118 
21:00	7.0	7.0	7.0	58	-4.6	0	1	248	0.00	30.116 
21:05	7.2	7.2	7.2	58	-4.4	0	2	248	0.00	30.116 
21:10	7.2	7.2	7.2	57	-4.8	0	1	248	0.00	30.116 
21:15	7.0	7.0	7.0	58	-4.6	0	0	---	0.00	30.109 
21:20	7.0	7.0	7.0	58	-4.6	0	1	248	0.00	30.109 
21:25	7.0	7.0	7.0	58	-4.6	0	0	---	0.00	30.109 
21:30	6.9	6.9	6.9	58	-4.7	0	1	248	0.00	30.108 
21:35	6.7	6.7	6.7	59	-4.5	0	0	---	0.00	30.108 
21:40	6.3	6.3	6.3	59	-4.9	0	0	---	0.00	30.108 
21:45	6.1	6.1	6.1	59	-5.1	0	0	---	0.00	30.111 
21:50	6.0	6.0	6.0	60	-4.9	0	0	---	0.00	30.111 
21:55	6.1	6.1	6.1	61	-4.4	0	1	248	0.00	30.111 
22:00	6.3	6.3	6.3	61	-4.2	0	0	---	0.00	30.111 
22:05	6.1	6.1	6.1	61	-4.4	0	0	---	0.00	30.111 
22:10	6.0	6.0	6.0	62	-4.2	0	0	---	0.00	30.111 
22:15	6.0	6.0	6.0	62	-4.2	0	1	248	0.00	30.107 
22:20	6.0	6.0	6.0	62	-4.2	0	1	248	0.00	30.107 
22:25	6.1	6.1	6.1	63	-3.8	0	1	248	0.00	30.107 
22:30	6.3	6.3	6.3	63	-3.6	0	1	248	0.00	30.106 
22:35	6.7	6.7	6.7	63	-3.2	0	1	248	0.00	30.106 
22:40	6.9	6.9	6.9	63	-3.0	0	1	248	0.00	30.106 
22:45	6.9	6.9	6.9	62	-3.3	0	1	248	0.00	30.104 
22:50	6.9	6.9	6.9	62	-3.3	0	0	---	0.00	30.104 
22:55	6.7	6.7	6.7	62	-3.5	0	0	---	0.00	30.104 
23:00	6.5	6.5	6.5	62	-3.7	0	1	248	0.00	30.104 
23:05	6.5	6.5	6.5	63	-3.4	0	1	248	0.00	30.104 
23:10	6.7	6.7	6.7	63	-3.2	0	1	248	0.00	30.104 
23:15	6.5	6.5	6.5	63	-3.4	0	0	---	0.00	30.099 
23:20	6.5	6.5	6.5	63	-3.4	0	0	---	0.00	30.099 
23:25	6.5	6.5	6.5	64	-3.0	0	1	248	0.00	30.099 
23:30	6.3	6.3	6.3	64	-3.2	0	0	---	0.00	30.097 
23:35	6.3	6.3	6.3	64	-3.2	0	1	248	0.00	30.097 
23:40	6.3	6.3	6.3	64	-3.2	0	0	---	0.00	30.097 
23:45	6.1	6.1	6.1	64	-3.4	0	0	---	0.00	30.095 
23:50	5.8	5.8	5.8	65	-3.4	0	0	---	0.00	30.095 
23:55	6.0	6.0	6.0	66	-2.9	0	1	248	0.00	30.095 

CoCoRaHS
IN-AL-39
A2 Web Hosting
Creative Commons License
GoDaddy
search engine by freefind advanced

loaded 2018-11-19 18:46:16 • last modified 2010-11-18 10:43:29
Privacy PolicyDisclaimer
• wx.awcolley.com is powered by PmWiki v.2002016 •
• all content (unless otherwise noted) © 2018 A W Colley